createdAt,value
2022-11-17T00:00:37.831Z,3.61
2022-11-17T00:03:04.370Z,3.59
2022-11-17T00:05:30.841Z,3.56
2022-11-17T00:07:57.433Z,3.58
2022-11-17T00:10:24.026Z,3.55
2022-11-17T00:13:09.388Z,3.54
2022-11-17T00:15:35.961Z,3.63
2022-11-17T00:18:21.316Z,3.52
2022-11-17T00:21:06.386Z,3.55
2022-11-17T00:23:48.107Z,3.53
2022-11-17T00:26:16.906Z,3.45
2022-11-17T00:28:43.576Z,3.45
2022-11-17T00:31:32.968Z,3.47
2022-11-17T00:34:06.313Z,3.43
2022-11-17T00:36:38.024Z,3.42
2022-11-17T00:39:05.318Z,3.41
2022-11-17T00:41:32.100Z,3.42
2022-11-17T00:43:58.667Z,3.45
2022-11-17T00:46:25.693Z,3.45
2022-11-17T00:48:52.152Z,3.47
2022-11-17T00:51:19.532Z,3.45
2022-11-17T00:53:46.572Z,3.41
2022-11-17T00:56:13.306Z,3.37
2022-11-17T00:58:39.795Z,3.41
2022-11-17T01:01:06.605Z,3.41
2022-11-17T01:03:35.454Z,3.45
2022-11-17T01:06:14.743Z,3.42
2022-11-17T01:08:41.846Z,3.41
2022-11-17T01:11:09.907Z,3.37
2022-11-17T01:13:37.868Z,3.37
2022-11-17T01:16:08.124Z,3.37
2022-11-17T01:18:35.930Z,3.34
2022-11-17T01:21:17.850Z,3.34
2022-11-17T01:23:46.098Z,3.37
2022-11-17T01:26:18.266Z,3.34
2022-11-17T01:28:44.931Z,3.31
2022-11-17T01:31:13.764Z,3.37
2022-11-17T01:33:40.837Z,3.35
2022-11-17T01:36:08.893Z,3.37
2022-11-17T01:38:35.561Z,3.35
2022-11-17T01:41:04.281Z,3.38
2022-11-17T01:43:42.944Z,3.41
2022-11-17T01:46:13.894Z,3.41
2022-11-17T01:48:42.382Z,3.39
2022-11-17T01:51:10.083Z,3.38
2022-11-17T01:53:37.081Z,3.34
2022-11-17T01:56:07.966Z,3.33
2022-11-17T01:58:38.160Z,3.37
2022-11-17T02:01:04.842Z,3.35
2022-11-17T02:03:35.840Z,3.30
2022-11-17T02:06:31.128Z,3.27
2022-11-17T02:08:59.528Z,3.31
2022-11-17T02:11:27.372Z,3.28
2022-11-17T02:13:55.875Z,3.28
2022-11-17T02:16:22.395Z,3.31
2022-11-17T02:18:49.209Z,3.32
2022-11-17T02:21:30.992Z,3.36
2022-11-17T02:24:40.715Z,3.32
2022-11-17T02:27:24.967Z,3.29
2022-11-17T02:30:03.739Z,3.28
2022-11-17T02:32:53.479Z,3.31
2022-11-17T02:35:48.368Z,3.33
2022-11-17T02:38:29.877Z,3.31
2022-11-17T02:41:10.276Z,3.29
2022-11-17T02:44:01.693Z,3.34
2022-11-17T02:46:32.051Z,3.29
2022-11-17T02:49:06.400Z,3.27
2022-11-17T02:51:34.844Z,3.22
2022-11-17T02:54:02.247Z,3.31
2022-11-17T02:56:28.760Z,3.29
2022-11-17T02:59:00.467Z,3.24
2022-11-17T03:01:42.206Z,3.21
2022-11-17T03:04:27.345Z,3.24
2022-11-17T03:07:24.170Z,3.22
2022-11-17T03:10:05.719Z,3.16
2022-11-17T03:13:02.213Z,3.19
2022-11-17T03:15:31.760Z,3.14
2022-11-17T03:18:01.084Z,3.12
2022-11-17T03:20:32.325Z,3.15
2022-11-17T03:23:13.839Z,3.10
2022-11-17T03:25:45.123Z,3.07
2022-11-17T03:28:12.518Z,3.08
2022-11-17T03:30:43.030Z,3.11
2022-11-17T03:33:16.123Z,3.01
2022-11-17T03:35:50.916Z,3.05
2022-11-17T03:38:20.075Z,3.10
2022-11-17T03:40:49.364Z,3.05
2022-11-17T03:43:18.729Z,3.04
2022-11-17T03:45:50.211Z,2.99
2022-11-17T03:48:26.907Z,3.00
2022-11-17T03:51:08.210Z,2.99
2022-11-17T03:53:36.022Z,2.94
2022-11-17T03:56:02.633Z,2.94
2022-11-17T03:58:33.115Z,2.90
2022-11-17T04:01:02.751Z,2.85
2022-11-17T04:03:34.347Z,2.90
2022-11-17T04:06:01.620Z,2.91
2022-11-17T04:08:30.791Z,2.88
2022-11-17T04:11:16.955Z,2.88
2022-11-17T04:14:02.711Z,2.90
2022-11-17T04:16:29.260Z,2.86
2022-11-17T04:18:58.957Z,2.86
2022-11-17T04:21:26.022Z,2.90
2022-11-17T04:23:52.619Z,2.87
2022-11-17T04:26:38.047Z,2.81
2022-11-17T04:29:04.732Z,2.84
2022-11-17T04:31:31.722Z,2.83
2022-11-17T04:33:59.571Z,2.84
2022-11-17T04:36:28.917Z,2.82
2022-11-17T04:38:57.562Z,2.82
2022-11-17T04:41:44.907Z,2.87
2022-11-17T04:44:13.458Z,2.84
2022-11-17T04:46:40.886Z,2.84
2022-11-17T04:49:08.153Z,2.85
2022-11-17T04:51:35.357Z,2.89
2022-11-17T04:54:03.399Z,2.88
2022-11-17T04:56:30.182Z,2.90
2022-11-17T04:58:57.229Z,2.93
2022-11-17T05:01:24.393Z,2.90
2022-11-17T05:03:53.491Z,2.88
2022-11-17T05:06:24.037Z,2.84
2022-11-17T05:08:55.634Z,2.84
2022-11-17T05:11:42.888Z,2.90
2022-11-17T05:14:09.531Z,2.94
2022-11-17T05:16:54.507Z,2.93
2022-11-17T05:19:28.127Z,2.89
2022-11-17T05:21:55.368Z,2.86
2022-11-17T05:24:22.301Z,2.91
2022-11-17T05:26:50.353Z,2.91
2022-11-17T05:29:18.902Z,2.90
2022-11-17T05:31:45.768Z,2.94
2022-11-17T05:34:14.448Z,2.94
2022-11-17T05:36:41.732Z,2.90
2022-11-17T05:39:09.538Z,2.89
2022-11-17T05:41:37.258Z,2.90
2022-11-17T05:44:04.711Z,2.90
2022-11-17T05:46:31.206Z,2.93
2022-11-17T05:48:58.493Z,2.95
2022-11-17T05:51:25.425Z,2.96
2022-11-17T05:53:52.310Z,2.96
2022-11-17T05:56:48.358Z,2.92
2022-11-17T05:59:31.671Z,2.89
2022-11-17T06:02:03.922Z,2.94
2022-11-17T06:04:31.421Z,2.95
2022-11-17T06:07:00.541Z,2.95
2022-11-17T06:09:33.734Z,2.94
2022-11-17T06:12:05.646Z,2.98
2022-11-17T06:14:33.106Z,2.97
2022-11-17T06:17:02.065Z,2.95
2022-11-17T06:19:36.408Z,2.92
2022-11-17T06:22:12.275Z,2.97
2022-11-17T06:24:40.613Z,2.94
2022-11-17T06:27:07.225Z,2.95
2022-11-17T06:29:34.760Z,2.97
2022-11-17T06:32:02.783Z,2.96
2022-11-17T06:34:31.845Z,3.00
2022-11-17T06:36:58.334Z,3.00
2022-11-17T06:39:24.854Z,3.05
2022-11-17T06:41:51.399Z,3.09
2022-11-17T06:44:18.329Z,3.14
2022-11-17T06:46:48.833Z,3.10
2022-11-17T06:49:15.734Z,3.07
2022-11-17T06:51:45.208Z,3.10
2022-11-17T06:54:12.959Z,3.11
2022-11-17T06:56:39.651Z,3.19
2022-11-17T06:59:06.514Z,3.19
2022-11-17T07:01:33.050Z,3.14
2022-11-17T07:03:59.567Z,3.12
2022-11-17T07:06:26.067Z,3.18
2022-11-17T07:08:52.629Z,3.15
2022-11-17T07:11:19.232Z,3.20
2022-11-17T07:13:45.966Z,3.20
2022-11-17T07:16:20.048Z,3.21
2022-11-17T07:18:50.102Z,3.16
2022-11-17T07:21:16.745Z,3.22
2022-11-17T07:23:44.997Z,3.20
2022-11-17T07:26:12.087Z,3.21
2022-11-17T07:28:38.845Z,3.25
2022-11-17T07:31:08.458Z,3.28
2022-11-17T07:33:35.504Z,3.23
2022-11-17T07:36:02.860Z,3.23
2022-11-17T07:38:31.863Z,3.22
2022-11-17T07:41:00.238Z,3.33
2022-11-17T07:43:27.088Z,3.31
2022-11-17T07:45:54.086Z,3.32
2022-11-17T07:48:20.484Z,3.35
2022-11-17T07:50:47.124Z,3.34
2022-11-17T07:53:13.785Z,3.39
2022-11-17T07:55:40.294Z,3.44
2022-11-17T07:58:06.847Z,3.47
2022-11-17T08:00:33.855Z,3.47
2022-11-17T08:03:02.155Z,3.48
2022-11-17T08:05:30.705Z,3.50
2022-11-17T08:07:59.264Z,3.50
2022-11-17T08:10:27.141Z,3.52
2022-11-17T08:12:55.015Z,3.57
2022-11-17T08:15:22.316Z,3.60
2022-11-17T08:17:53.520Z,3.59
2022-11-17T08:20:20.561Z,3.63
2022-11-17T08:22:47.008Z,3.67
2022-11-17T08:25:14.180Z,3.67
2022-11-17T08:27:41.751Z,3.74
2022-11-17T08:30:09.620Z,3.75
2022-11-17T08:32:36.850Z,3.76
2022-11-17T08:35:05.825Z,3.80
2022-11-17T08:37:32.352Z,3.90
2022-11-17T08:39:58.873Z,3.88
2022-11-17T08:42:25.769Z,3.94
2022-11-17T08:44:52.712Z,4.00
2022-11-17T08:47:19.186Z,4.08
2022-11-17T08:49:45.672Z,4.11
2022-11-17T08:52:12.420Z,4.11
2022-11-17T08:54:38.943Z,4.11
2022-11-17T08:57:05.473Z,4.15
2022-11-17T08:59:32.166Z,4.17
2022-11-17T09:01:58.648Z,4.22
2022-11-17T09:04:25.165Z,4.23
2022-11-17T09:06:51.715Z,4.28
2022-11-17T09:09:18.677Z,4.31
2022-11-17T09:11:45.271Z,4.26
2022-11-17T09:14:11.799Z,4.28
2022-11-17T09:16:38.377Z,4.31
2022-11-17T09:19:05.221Z,4.37
2022-11-17T09:21:33.797Z,4.36
2022-11-17T09:24:00.544Z,4.41
2022-11-17T09:26:27.093Z,4.41
2022-11-17T09:28:53.742Z,4.41
2022-11-17T09:31:22.317Z,4.44
2022-11-17T09:33:49.117Z,4.48
2022-11-17T09:36:17.019Z,4.46
2022-11-17T09:38:44.347Z,4.52
2022-11-17T09:41:28.126Z,4.51
2022-11-17T09:44:04.076Z,4.57
2022-11-17T09:47:01.354Z,4.50
2022-11-17T09:49:39.849Z,4.50
2022-11-17T09:55:27.267Z,4.63
2022-11-17T09:58:19.924Z,4.72
2022-11-17T10:00:48.917Z,4.73
2022-11-17T10:03:26.012Z,4.81
2022-11-17T10:05:53.340Z,4.80
2022-11-17T10:08:36.754Z,4.74
2022-11-17T10:11:23.305Z,4.76
2022-11-17T10:13:50.606Z,4.83
2022-11-17T10:16:17.117Z,4.86
2022-11-17T10:18:43.640Z,4.85
2022-11-17T10:21:10.249Z,4.86
2022-11-17T10:23:46.837Z,4.87
2022-11-17T10:26:16.109Z,4.89
2022-11-17T10:28:42.998Z,4.89
2022-11-17T10:31:18.267Z,4.87
2022-11-17T10:33:51.534Z,4.92
2022-11-17T10:36:18.014Z,4.96
2022-11-17T10:38:53.416Z,4.94
2022-11-17T10:41:27.260Z,4.95
2022-11-17T10:44:02.239Z,4.98
2022-11-17T10:46:38.229Z,4.95
2022-11-17T10:49:24.768Z,5.03
2022-11-17T10:52:14.386Z,5.09
2022-11-17T10:54:41.188Z,5.03
2022-11-17T10:57:15.182Z,5.01
2022-11-17T10:59:53.444Z,5.01
2022-11-17T11:02:30.649Z,4.99
2022-11-17T11:05:08.187Z,5.07
2022-11-17T11:07:35.502Z,5.08
2022-11-17T11:10:27.106Z,5.11
2022-11-17T11:13:24.587Z,5.08
2022-11-17T11:15:51.548Z,5.13
2022-11-17T11:18:19.750Z,5.09
2022-11-17T11:20:59.819Z,5.06
2022-11-17T11:23:46.159Z,5.07
2022-11-17T11:26:33.773Z,5.02
2022-11-17T11:29:21.967Z,5.03
2022-11-17T11:32:10.659Z,5.06
2022-11-17T11:34:46.796Z,5.03
2022-11-17T11:37:15.669Z,5.01
2022-11-17T11:40:09.815Z,5.05
2022-11-17T11:42:45.589Z,5.09
2022-11-17T11:45:24.280Z,5.11
2022-11-17T11:48:26.924Z,5.13
2022-11-17T11:51:00.353Z,5.15
2022-11-17T11:53:41.799Z,5.16
2022-11-17T11:56:21.922Z,5.20
2022-11-17T11:59:04.317Z,5.23
2022-11-17T13:54:56.128Z,4.95
2022-11-17T14:01:14.637Z,4.90
2022-11-17T14:03:46.107Z,4.94
2022-11-17T14:29:34.780Z,4.88
2022-11-17T14:32:01.264Z,4.85
2022-11-17T14:34:27.782Z,4.85
2022-11-17T14:36:55.403Z,4.81
2022-11-17T14:39:22.619Z,4.90
2022-11-17T14:41:50.904Z,4.85
2022-11-17T14:44:17.558Z,4.80
2022-11-17T14:46:44.179Z,4.88
2022-11-17T14:49:10.742Z,4.83
2022-11-17T14:51:37.311Z,4.77
2022-11-17T14:54:04.124Z,4.77
2022-11-17T14:56:30.919Z,4.75
2022-11-17T14:58:59.239Z,4.75
2022-11-17T15:01:31.426Z,4.76
2022-11-17T15:04:15.380Z,4.76
2022-11-17T15:06:47.673Z,4.77
2022-11-17T15:09:16.433Z,4.80
2022-11-17T15:11:42.974Z,4.76
2022-11-17T15:14:10.900Z,4.77
2022-11-17T15:16:37.456Z,4.76
2022-11-17T15:19:04.069Z,4.75
2022-11-17T15:21:30.616Z,4.76
2022-11-17T15:23:57.358Z,4.75
2022-11-17T15:26:23.947Z,4.73
2022-11-17T15:28:50.730Z,4.75
2022-11-17T15:31:20.588Z,4.73
2022-11-17T15:33:48.286Z,4.71
2022-11-17T15:36:19.681Z,4.76
2022-11-17T15:38:47.726Z,4.75
2022-11-17T15:41:15.251Z,4.72
2022-11-17T15:43:43.850Z,4.68
2022-11-17T15:46:12.787Z,4.69
2022-11-17T15:48:43.233Z,4.75
2022-11-17T15:51:12.338Z,4.70
2022-11-17T15:53:39.568Z,4.71
2022-11-17T15:56:14.594Z,4.69
2022-11-17T15:58:42.592Z,4.71
2022-11-17T16:01:13.398Z,4.67
2022-11-17T16:03:41.540Z,4.65
2022-11-17T16:06:09.353Z,4.64
2022-11-17T16:08:36.672Z,4.66
2022-11-17T16:11:03.658Z,4.64
2022-11-17T16:13:30.438Z,4.63
2022-11-17T16:15:57.171Z,4.64
2022-11-17T16:18:24.629Z,4.64
2022-11-17T16:20:51.688Z,4.66
2022-11-17T16:23:18.199Z,4.63
2022-11-17T16:25:47.489Z,4.71
2022-11-17T16:28:16.452Z,4.71
2022-11-17T16:30:43.013Z,4.69
2022-11-17T16:33:14.806Z,4.68
2022-11-17T16:35:41.739Z,4.72
2022-11-17T16:38:13.759Z,4.64
2022-11-17T16:40:41.256Z,4.71
2022-11-17T16:43:11.833Z,4.67
2022-11-17T16:45:44.361Z,4.67
2022-11-17T16:48:12.438Z,4.66
2022-11-17T16:50:40.466Z,4.61
2022-11-17T16:53:07.102Z,4.60
2022-11-17T16:55:37.309Z,4.57
2022-11-17T16:58:05.990Z,4.58
2022-11-17T17:00:34.900Z,4.60
2022-11-17T17:03:02.151Z,4.56
2022-11-17T17:05:31.790Z,4.51
2022-11-17T17:07:58.350Z,4.47
2022-11-17T17:10:25.067Z,4.45
2022-11-17T17:12:51.616Z,4.51
2022-11-17T17:15:18.366Z,4.55
2022-11-17T17:17:44.871Z,4.46
2022-11-17T17:20:11.782Z,4.48
2022-11-17T17:22:38.253Z,4.53
2022-11-17T17:25:05.280Z,4.56
2022-11-17T17:27:31.759Z,4.50
2022-11-17T17:29:58.369Z,4.44
2022-11-17T17:32:24.930Z,4.41
2022-11-17T17:34:51.662Z,4.40
2022-11-17T17:37:18.266Z,4.42
2022-11-17T17:39:44.878Z,4.43
2022-11-17T17:42:12.784Z,4.44
2022-11-17T17:44:39.392Z,4.42
2022-11-17T17:47:06.534Z,4.41
2022-11-17T17:49:33.068Z,4.39
2022-11-17T17:51:59.550Z,4.38
2022-11-17T17:54:26.198Z,4.40
2022-11-17T17:56:52.937Z,4.39
2022-11-17T17:59:19.885Z,4.43
2022-11-17T18:01:47.773Z,4.43
2022-11-17T18:04:16.474Z,4.38
2022-11-17T18:06:47.072Z,4.36
2022-11-17T18:09:18.785Z,4.36
2022-11-17T18:11:47.896Z,4.42
2022-11-17T18:14:14.505Z,4.42
2022-11-17T18:16:41.018Z,4.39
2022-11-17T18:19:09.147Z,4.36
2022-11-17T18:21:36.206Z,4.34
2022-11-17T18:24:02.934Z,4.36
2022-11-17T18:26:35.368Z,4.32
2022-11-17T18:29:05.437Z,4.37
2022-11-17T18:31:35.895Z,4.39
2022-11-17T18:34:05.153Z,4.35
2022-11-17T18:36:32.183Z,4.35
2022-11-17T18:38:58.822Z,4.33
2022-11-17T18:41:26.030Z,4.34
2022-11-17T18:43:52.734Z,4.34
2022-11-17T18:46:21.582Z,4.28
2022-11-17T18:48:51.603Z,4.28
2022-11-17T18:51:21.252Z,4.19
2022-11-17T18:53:49.097Z,4.22
2022-11-17T18:56:17.457Z,4.26
2022-11-17T18:58:44.489Z,4.24
2022-11-17T19:01:21.696Z,4.26
2022-11-17T19:03:50.724Z,4.25
2022-11-17T19:06:19.223Z,4.23
2022-11-17T19:08:46.437Z,4.17
2022-11-17T19:11:13.027Z,4.10
2022-11-17T19:13:41.475Z,4.05
2022-11-17T19:16:10.181Z,3.99
2022-11-17T19:18:36.839Z,4.04
2022-11-17T19:21:05.058Z,4.04
2022-11-17T19:23:35.760Z,4.04
2022-11-17T19:26:07.343Z,4.03
2022-11-17T19:28:34.428Z,3.95
2022-11-17T19:31:04.532Z,3.93
2022-11-17T19:33:33.467Z,3.95
2022-11-17T19:36:08.662Z,3.94
2022-11-17T19:38:38.609Z,3.92
2022-11-17T19:41:09.097Z,3.91
2022-11-17T19:43:41.712Z,3.88
2022-11-17T19:46:13.221Z,3.89
2022-11-17T19:48:40.487Z,3.86
2022-11-17T19:51:25.119Z,3.92
2022-11-17T19:53:54.170Z,3.96
2022-11-17T19:56:22.029Z,4.01
2022-11-17T19:58:49.844Z,4.01
2022-11-17T20:01:18.879Z,4.10
2022-11-17T20:03:46.356Z,4.15
2022-11-17T20:06:18.013Z,4.15
2022-11-17T20:08:44.733Z,4.17
2022-11-17T20:11:17.273Z,4.11
2022-11-17T20:13:44.541Z,4.09
2022-11-17T20:16:16.465Z,4.01
2022-11-17T20:18:44.408Z,3.99
2022-11-17T20:21:13.973Z,3.99
2022-11-17T20:23:40.781Z,3.96
2022-11-17T20:26:13.186Z,3.92
2022-11-17T20:28:39.962Z,3.87
2022-11-17T20:31:12.109Z,3.87
2022-11-17T20:33:39.799Z,3.82
2022-11-17T20:36:08.463Z,3.77
2022-11-17T20:38:36.118Z,3.75
2022-11-17T20:41:03.911Z,3.75
2022-11-17T20:43:30.677Z,3.71
2022-11-17T20:45:58.386Z,3.71
2022-11-17T20:48:25.599Z,3.71
2022-11-17T20:50:59.870Z,3.71
2022-11-17T20:53:27.750Z,3.74
2022-11-17T20:55:58.661Z,3.76
2022-11-17T20:58:26.191Z,3.76
2022-11-17T21:00:53.758Z,3.74
2022-11-17T21:03:21.187Z,3.75
2022-11-17T21:05:58.841Z,3.81
2022-11-17T21:08:27.922Z,3.91
2022-11-17T21:10:59.722Z,3.97
2022-11-17T21:13:27.064Z,4.00
2022-11-17T21:16:06.079Z,4.01
2022-11-17T21:18:33.347Z,4.05
2022-11-17T21:21:04.672Z,4.02
2022-11-17T21:23:31.474Z,4.07
2022-11-17T21:25:58.097Z,4.10
2022-11-17T21:28:24.682Z,4.11
2022-11-17T21:30:51.193Z,4.11
2022-11-17T21:33:17.699Z,4.10
2022-11-17T21:35:44.225Z,4.20
2022-11-17T21:38:11.178Z,4.14
2022-11-17T21:40:37.768Z,4.12
2022-11-17T21:43:04.519Z,4.15
2022-11-17T21:45:32.912Z,4.14
2022-11-17T21:47:59.713Z,4.15
2022-11-17T21:50:26.372Z,4.09
2022-11-17T21:52:52.908Z,4.17
2022-11-17T21:55:19.460Z,4.15
2022-11-17T21:57:49.464Z,4.16
2022-11-17T22:00:16.550Z,4.10
2022-11-17T22:02:42.937Z,4.12
2022-11-17T22:05:09.577Z,4.09
2022-11-17T22:07:36.119Z,4.09
2022-11-17T22:10:02.775Z,4.07
2022-11-17T22:12:29.276Z,4.10
2022-11-17T22:14:55.808Z,4.08
2022-11-17T22:17:22.322Z,4.07
2022-11-17T22:19:48.894Z,4.05
2022-11-17T22:22:15.406Z,4.08
2022-11-17T22:24:46.912Z,4.08
2022-11-17T22:27:16.070Z,4.13
2022-11-17T22:29:42.648Z,4.10
2022-11-17T22:32:09.195Z,4.11
2022-11-17T22:34:35.743Z,4.16
2022-11-17T22:37:02.343Z,4.15
2022-11-17T22:39:28.865Z,4.22
2022-11-17T22:41:55.396Z,4.25
2022-11-17T22:44:21.921Z,4.25
2022-11-17T22:46:48.494Z,4.29
2022-11-17T22:49:15.367Z,4.31
2022-11-17T22:52:01.074Z,4.28
2022-11-17T22:54:27.621Z,4.34
2022-11-17T22:56:54.247Z,4.30
2022-11-17T22:59:23.312Z,4.29
2022-11-17T23:01:49.860Z,4.30
2022-11-17T23:04:16.574Z,4.30
2022-11-17T23:06:43.746Z,4.31
2022-11-17T23:09:11.476Z,4.28
2022-11-17T23:11:38.672Z,4.33
2022-11-17T23:14:08.194Z,4.36
2022-11-17T23:16:35.170Z,4.30
2022-11-17T23:19:01.919Z,4.22
2022-11-17T23:21:28.429Z,4.22
2022-11-17T23:23:55.054Z,4.21
2022-11-17T23:26:22.331Z,4.16
2022-11-17T23:28:49.576Z,4.21
2022-11-17T23:31:17.536Z,4.26
2022-11-17T23:33:46.106Z,4.18
2022-11-17T23:36:15.266Z,4.23
2022-11-17T23:38:42.486Z,4.16
2022-11-17T23:41:11.837Z,4.21
2022-11-17T23:43:38.657Z,4.19
2022-11-17T23:46:08.215Z,4.22
2022-11-17T23:48:34.956Z,4.19
2022-11-17T23:51:13.631Z,4.15
2022-11-17T23:53:40.614Z,4.19
2022-11-17T23:56:08.376Z,4.19
2022-11-17T23:58:35.345Z,4.27
